Weather observations for the past three days for
Albert Lea, Albert Lea Municipal Airport
Imperial (Metric)
Date Time (cdt) Wind (mph) Vis. (mi.) Weather Sky Cond. Temperature (ºF) Relative Humidity Wind Chill (°F) Heat Index (°F) Pressure Precipitation (in)
Air Dwpt 6 hour altimeter (in) sea level (mb) 1 hr 3 hr 6 hr
Max. Min.
05 12:55 NE 7 10.00 Overcast OVC003 73.9 72.1 73.9 68.9 94% 30.05 0.0
05 12:35 NE 5 9.00 Overcast OVC003 73 71.6 95% 30.06 0.0
05 12:15 Calm 9.00 Overcast OVC002 72.1 71.2 97% 30.06 0.0
05 11:55 Calm 4.00 Fog/Mist OVC002 72 71.2 98% 30.07 0.0
05 11:35 Calm 5.00 Light Rain Fog/Mist OVC001 71.6 71.1 98% 30.08 0.0
05 11:15 E 5 6.00 Fog/Mist OVC001 71.4 70.9 98% 30.06 0.0
05 10:55 NE 3 8.00 Overcast OVC002 71.1 70.5 98% 30.06 0.0
05 10:35 NE 3 8.00 Overcast OVC002 71.1 70.5 98% 30.06 0.0
05 10:15 E 3 3.00 Fog/Mist OVC001 70.5 70.2 99% 30.04 0.0
05 09:55 NE 6 5.00 Fog/Mist OVC001 70.3 70 99% 30.04 0.0
05 09:35 NE 7 3.00 Fog/Mist OVC002 70 69.6 99% 30.04 0.0
05 09:15 NE 7 1.50 Fog/Mist OVC002 69.8 69.8 100% 30.03 0.0
05 08:55 NE 6 0.50 Fog VV002 69.3 69.3 100% 30.02 0.0
05 08:35 NE 3 0.50 Fog VV002 69.3 69.3 100% 30.02 0.0
05 08:15 NE 5 0.75 Fog/Mist VV002 68.9 68.9 100% 30.02 0.0
05 07:55 NE 6 2.50 Fog/Mist OVC002 69.3 68.9 99% 30 0.0
05 07:35 NE 5 7.00 Overcast OVC002 69.3 68.9 99% 29.99 0.0
05 07:15 NE 5 8.00 Partly Cloudy SCT002 69.1 68.5 98% 29.98 0.0
05 06:55 NE 5 7.00 Fair CLR 68.7 68.4 74.5 68.7 99% 29.97 0.0
05 06:35 NE 3 7.00 Fair CLR 68.7 68.2 98% 29.97 0.0
05 06:15 NE 3 9.00 Fair CLR 68.9 68.4 98% 29.98 0.0
05 05:55 NE 3 8.00 Fair CLR 69.1 68.5 98% 29.97 0.0
05 05:35 NE 3 8.00 Fair CLR 69.1 68.5 98% 29.97 0.0
05 05:15 NE 3 9.00 Fair CLR 69.6 68.9 98% 29.97 0.0
05 04:55 NE 3 9.00 Fair CLR 70.2 69.4 98% 29.97 0.0
05 04:35 E 5 9.00 Fair CLR 70.3 69.8 98% 29.96 0.0
05 04:15 NE 5 8.00 Fair CLR 70.7 70 98% 29.95 0.0
05 03:55 NE 3 7.00 Fair CLR 71.2 70.7 98% 29.97 0.0
05 03:35 NE 3 7.00 Fair CLR 71.4 70.9 98% 29.97 0.0
05 03:15 Calm 6.00 Fog/Mist CLR 71.6 71.1 98% 29.97 0.0
05 02:55 NE 5 7.00 Fair CLR 72.1 71.6 98% 29.97 0.0
05 02:35 NE 3 7.00 Fair CLR 72.9 72 97% 29.96 0.0
05 02:15 NE 5 7.00 Fair CLR 73 72.1 97% 29.97 0.0
05 01:55 E 3 7.00 Fair CLR 72.7 72.1 98% 29.97 0.0
05 01:35 N 3 7.00 Fair CLR 73.2 72.7 98% 29.97 0.0
05 01:15 NE 3 9.00 Fair CLR 74.1 73 96% 29.96 0.0
05 00:55 NE 5 9.00 Fair CLR 74.7 73.6 87.4 74.7 96% 29.96 0.0
05 00:35 NE 5 9.00 Fair CLR 74.8 73.6 96% 29.96 0.0
05 00:15 NE 6 10.00 Fair CLR 75.7 73.9 94% 75 29.95 0.0
04 23:55 NE 6 10.00 Fair CLR 75.6 73.9 95% 74 29.95 0.0
04 23:35 NE 3 10.00 Fair CLR 75.6 73.8 94% 75 29.95 0.0
04 23:15 Calm 10.00 Partly Cloudy SCT033 75.7 73.9 94% 75 29.95 0.0
04 22:55 NE 3 10.00 Partly Cloudy SCT034 77 74.7 93% 78 29.95 0.0
04 22:35 N 5 10.00 Fair CLR 76.3 74.3 94% 76 29.95 0.0
04 22:15 S 3 10.00 Fair CLR 77.9 74.8 90% 80 29.95 0.0
04 21:55 Calm 10.00 Fair CLR 78.4 75.4 90% 82 29.94 0.0
04 21:35 Calm 10.00 Fair CLR 78.6 75.4 90% 82 29.94 0.0
04 21:15 SE 5 10.00 Fair CLR 79.7 75.6 87% 84 29.94 0.0
04 20:55 S 5 10.00 Fair CLR 80.8 75.9 85% 87 29.93 0.0
04 20:35 S 6 10.00 Fair CLR 81.3 76.3 85% 88 29.92 0.0
04 20:15 SE 8 10.00 Fair CLR 82.8 76.5 81% 91 29.92 0.0
04 19:55 SE 7 10.00 Fair CLR 83.5 76.3 79% 92 29.92 0.0
04 19:35 SE 5 10.00 Fair CLR 84.2 76.1 77% 93 29.91 0.0
04 19:15 Calm 10.00 Fair CLR 86.5 76.1 71% 97 29.91 0.0
04 18:55 S 3 10.00 Fair CLR 88.2 75.4 92.1 88.2 66% 98 29.91 0.0
04 18:35 S 3 10.00 Fair CLR 88.9 74.7 63% 99 29.91 0.0
04 18:15 Calm 10.00 Fair CLR 89.6 75.2 63% 100 29.91 0.0
04 17:55 Calm 10.00 Fair CLR 90.3 74.1 59% 100 29.9 0.0
04 17:35 SW 3 10.00 Fair CLR 90.7 74.1 58% 100 29.9 0.0
04 17:15 Calm 10.00 Fair CLR 90.7 73.4 57% 100 29.9 0.0
04 16:55 S 5 10.00 Fair CLR 91.6 74.7 58% 102 29.89 0.0
04 16:35 W 5 10.00 Fair CLR 91.6 74.3 57% 102 29.89 0.0
04 16:15 SE 5 10.00 Fair CLR 91.2 75 59% 102 29.89 0.0
04 15:55 S 5 10.00 Fair CLR 90.9 72.7 55% 99 29.89 0.0
04 15:35 S 7 10.00 Fair CLR 91 74.3 58% 101 29.89 0.0
04 15:15 SE 6 10.00 Fair CLR 91.4 74.8 58% 102 29.89 0.0
04 14:55 S 6 10.00 Fair CLR 91.2 74.5 58% 101 29.89 0.0
04 14:35 SE 7 10.00 Fair CLR 90.7 74.8 60% 101 29.89 0.0
04 14:15 SE 6 10.00 Fair CLR 90.3 74.8 60% 101 29.89 0.0
04 13:55 Vrbl 3 10.00 Fair CLR 89.2 74.8 63% 99 29.89 0.0
04 13:35 SE 8 10.00 Fair CLR 89.2 74.5 62% 99 29.89 0.0
04 13:15 SE 6 10.00 Fair CLR 88.9 73.9 61% 98 29.89 0.0
04 12:55 E 5 10.00 A Few Clouds FEW130 88.5 73.9 89.2 71.1 62% 97 29.89 0.0
04 12:35 Vrbl 5 10.00 A Few Clouds FEW130 88.3 73.8 62% 97 29.89 0.0
04 12:15 Calm 10.00 A Few Clouds FEW130 87.6 72.9 62% 95 29.89 0.0
04 11:55 Calm 10.00 Fair CLR 86.5 72.5 63% 93 29.89 0.0
04 11:35 Calm 10.00 Fair CLR 86 72.1 63% 92 29.89 0.0
04 11:15 Calm 10.00 Fair CLR 84.9 72.3 66% 91 29.89 0.0
04 10:55 SW 3 10.00 Fair CLR 84.2 71.6 66% 90 29.89 0.0
04 10:35 S 5 10.00 Fair CLR 84 71.6 66% 89 29.89 0.0
04 10:15 Vrbl 5 10.00 Fair CLR 84.6 70.9 64% 90 29.89 0.0
04 09:55 W 5 10.00 Fair CLR 83.1 71.1 67% 88 29.88 0.0
04 09:35 W 5 10.00 Fair CLR 82.4 71.1 69% 87 29.88 0.0
04 09:15 W 3 10.00 Fair CLR 80.4 71.1 73% 84 29.88 0.0
04 08:55 SW 6 10.00 Fair CLR 78.4 70.3 76% 81 29.87 0.0
04 08:35 SW 5 9.00 Fair CLR 77 70.7 81% 79 29.88 0.0
04 08:15 Calm 10.00 Fair CLR 75 70.3 85% 75 29.88 0.0
04 07:55 Calm 9.00 Fair CLR 73 70.3 91% 29.88 0.0
04 07:35 Calm 8.00 Fair CLR 71.2 70 96% 29.87 0.0
04 07:15 S 3 8.00 Fair CLR 71.1 69.3 94% 29.87 0.0
04 06:55 Calm 9.00 Fair CLR 72.7 69.4 76.8 71.6 90% 29.86 0.0
04 06:35 S 5 10.00 Fair CLR 71.6 69.3 92% 29.86 0.0
04 06:15 Calm 10.00 Fair CLR 72.3 69.6 91% 29.85 0.0
04 05:55 SW 3 10.00 Fair CLR 73.9 69.8 87% 29.85 0.0
04 05:35 Calm 10.00 Fair CLR 74.1 69.6 86% 29.85 0.0
04 05:15 Calm 10.00 Fair CLR 75 69.8 84% 75 29.85 0.0
04 04:55 S 5 10.00 A Few Clouds FEW075 75.4 70 83% 76 29.84 0.0
04 04:35 SW 5 10.00 Partly Cloudy SCT075 76.1 70.2 82% 77 29.84 0.0
04 04:15 SW 6 10.00 Partly Cloudy SCT070 SCT095 76.5 70 80% 78 29.84 0.0
04 03:55 SW 6 10.00 Partly Cloudy SCT070 SCT095 76.6 70.5 81% 78 29.84 0.0
04 03:35 SW 7 10.00 Partly Cloudy SCT070 SCT100 76.8 70.5 81% 78 29.83 0.0
04 03:15 SW 7 10.00 Fair CLR 76.5 70.7 82% 78 29.83 0.0
04 02:35 S 6 10.00 A Few Clouds FEW065 76.1 71.2 85% 77 29.84 0.0
04 02:15 S 6 10.00 Mostly Cloudy BKN070 BKN080 76.3 71.4 85% 77 29.84 0.0
04 01:55 S 5 10.00 Overcast SCT065 BKN085 OVC150 76.3 72 87% 77 29.85 0.0
04 01:35 S 5 10.00 Overcast SCT065 BKN085 OVC150 76.1 72 87% 77 29.85 0.0
04 01:15 S 5 10.00 Overcast SCT065 BKN085 OVC160 76.1 72.3 88% 76 29.85 0.0
04 00:55 S 5 10.00 Mostly Cloudy BKN060 BKN160 75.2 72.5 83.3 75.2 91% 74 29.85 0.0
04 00:35 S 5 10.00 Mostly Cloudy BKN060 75.7 72.5 90% 76 29.85 0.0
04 00:15 S 5 10.00 A Few Clouds FEW160 75.7 72.7 90% 75 29.84 0.0
03 23:55 S 6 10.00 Mostly Cloudy SCT065 BKN160 75.6 72.9 91% 75 29.84 0.0
03 23:35 S 7 10.00 Mostly Cloudy FEW065 BKN160 75.2 72.9 92% 74 29.84 0.0
03 23:15 SE 5 10.00 A Few Clouds FEW160 76.1 73 90% 76 29.85 0.0
03 22:55 S 7 10.00 Fair CLR 76.6 72.9 88% 78 29.84 0.0
03 22:35 S 7 10.00 Fair CLR 76.8 72.9 88% 78 29.85 0.0
03 22:15 S 7 10.00 Fair CLR 77.2 72.7 86% 79 29.85 0.0
03 21:55 S 7 10.00 Partly Cloudy SCT120 76.8 72.9 88% 78 29.85 0.0
03 21:35 SE 6 10.00 Mostly Cloudy BKN120 77.4 72.9 86% 79 29.85 0.0
03 21:15 SE 6 10.00 Overcast OVC120 78.1 72.9 84% 81 29.84 0.0
03 20:55 SE 7 10.00 Overcast OVC120 78.4 73.2 84% 81 29.83 0.0
03 20:35 SE 10 10.00 Mostly Cloudy BKN120 79.5 72.9 80% 83 29.83 0.0
03 20:15 SE 7 10.00 Mostly Cloudy SCT110 BKN130 BKN160 80.2 72.5 77% 84 29.83 0.0
03 19:55 SE 6 9.00 Overcast BKN120 OVC160 81 72.5 76% 86 29.83 0.0
03 19:35 S 6 9.00 Mostly Cloudy BKN120 BKN170 81.7 72.5 74% 87 29.83 0.0
03 19:15 S 7 9.00 Partly Cloudy SCT110 SCT130 SCT180 82.4 72 71% 87 29.82 0.0
03 18:55 S 5 9.00 A Few Clouds FEW110 83.3 71.6 87.8 80.6 68% 88 29.82 0.0
03 18:35 S 6 9.00 Fair CLR 82.9 70.7 67% 87 29.82 0.0
03 18:15 S 8 9.00 Fair CLR 83.5 70.3 65% 88 29.81 0.0
03 17:55 S 10 G 21 10.00 Fair CLR 86 70.2 59% 91 29.81 0.0
03 17:35 SW 14 G 18 10.00 Fair CLR 86.9 70 57% 92 29.81 0.0
03 17:15 S 9 10.00 A Few Clouds FEW170 86.9 70.3 58% 92 29.8 0.0
03 16:55 S 6 10.00 A Few Clouds FEW140 85.6 70 60% 90 29.82 0.0
03 16:35 S 13 10.00 Partly Cloudy FEW140 SCT170 87.1 69.4 56% 92 29.82 0.0
03 16:15 S 12 10.00 A Few Clouds FEW160 87.4 69.4 55% 92 29.81 0.0
03 15:55 S 12 G 18 10.00 Fair CLR 86.5 69.4 57% 91 29.81 0.0
03 15:35 S 15 G 18 10.00 Fair CLR 85.8 70 59% 90 29.8 0.0
03 15:15 S 16 10.00 A Few Clouds FEW190 84.4 69.4 61% 88 29.8 0.0
03 14:55 S 17 G 21 10.00 Fair CLR 84.7 68.7 59% 88 29.82 0.0
03 14:35 S 12 G 26 10.00 Fair CLR 84.4 68.4 59% 88 29.81 0.0
03 14:15 S 13 G 25 10.00 Fair CLR 82.8 68 61% 86 29.82 0.0
03 13:55 S 14 G 22 10.00 Fair CLR 82.4 68.4 63% 86 29.83 0.0
03 13:35 S 15 G 22 10.00 A Few Clouds FEW170 81.9 68.5 64% 85 29.84 0.0
03 13:15 S 13 10.00 Mostly Cloudy BKN170 BKN190 81.3 68.2 64% 84 29.83 0.0
03 12:55 S 13 G 23 10.00 Partly Cloudy FEW190 SCT210 78.4 67.6 80.1 69.1 70% 81 29.83 0.0 0.06
03 12:35 S 18 10.00 Partly Cloudy FEW180 SCT210 77.7 67.1 70% 80 29.82 0.0
03 12:15 S 15 10.00 Partly Cloudy FEW180 SCT250 77.9 67.6 71% 80 29.83 0.0
03 11:55 S 13 G 21 10.00 A Few Clouds FEW260 78.1 67.3 70% 80 29.86 0.0
03 11:35 S 15 G 18 10.00 A Few Clouds FEW110 77.7 66.9 69% 80 29.87 0.0
03 11:15 S 15 G 23 10.00 A Few Clouds FEW110 77 66.7 71% 79 29.88 0.0
03 10:55 S 17 G 24 10.00 Fair CLR 76.6 67.3 73% 78 29.87 0.0
03 10:35 S 17 10.00 A Few Clouds FEW170 76.3 67.3 74% 78 29.87 0.0
03 10:15 S 15 G 21 10.00 Mostly Cloudy BKN170 74.7 67.6 79% 29.87 0.0
03 09:55 S 14 10.00 Mostly Cloudy FEW130 BKN180 72 67.8 87% 29.87 0.0 0.06
03 09:35 SE 10 8.00 Mostly Cloudy SCT110 BKN130 BKN180 70.7 67.6 90% 29.87 0.0
03 09:15 SE 12 9.00 Overcast FEW070 OVC110 70.9 67.5 89% 29.88 0.0
03 08:55 SE 6 2.00 Thunderstorm Light Rain Fog/Mist FEW070 OVC100 70.9 68 91% 29.9 0.0 0.03
03 08:35 Calm 9.00 Thunderstorm in Vicinity OVC100 71.6 67.3 86% 29.9 0.0
03 08:15 SE 12 9.00 Thunderstorm in Vicinity BKN100 70.9 67.3 88% 29.87 0.0
03 07:55 SE 9 8.00 Overcast OVC100 69.4 67.1 92% 29.89 0.0 0.03
03 07:35 SE 10 8.00 Light Rain OVC100 69.4 66.6 91% 29.87 0.0 0.03
03 07:15 S 10 9.00 Thunderstorm in Vicinity OVC100 69.1 66.7 92% 29.88 0.0 0.03
03 06:55 E 7 9.00 Light Rain BKN090 OVC120 69.4 66 76.5 68.9 89% 29.88 0.0 0.1 0.4
03 06:35 SE 9 3.00 Thunderstorm Light Rain Fog/Mist BKN085 OVC110 69.1 66.6 92% 29.91 0.0 0.1
03 06:15 S 13 8.00 Light Rain Thunderstorm in Vicinity BKN095 OVC120 69.6 66.2 89% 29.9 0.0 0.01
03 05:55 S 12 G 18 9.00 Light Rain Thunderstorm in Vicinity FEW100 OVC120 72.3 64.8 77% 29.91 0.0
03 05:35 W 6 9.00 Thunderstorm OVC120 71.4 66.7 85% 29.91 0.0
03 05:15 S 6 9.00 Light Rain FEW080 OVC120 70.3 67.6 91% 29.9 0.0
03 04:55 W 5 6.00 Light Rain Fog/Mist Thunderstorm in Vicinity BKN090 OVC120 70.2 67.5 91% 29.92 0.0 0.16
03 04:35 S 12 8.00 Thunderstorm Light Rain BKN090 OVC120 70.5 66.7 88% 29.91 0.0 0.15
03 04:15 W 13 G 22 5.00 Light Rain Fog/Mist Thunderstorm in Vicinity OVC090 70.9 67.5 89% 29.94 0.0 0.14
03 03:55 S 9 5.00 Light Rain Thunderstorm in Vicinity BKN080 OVC095 73 66 79% 29.87 0.0 0.14 0.14
03 03:35 SW 13 5.00 Rain Thunderstorm in Vicinity OVC090 74.8 66.9 76% 29.86 0.0 0.06
03 03:15 S 9 10.00 Thunderstorm in Vicinity SCT100 BKN120 BKN230 OVC260 75.4 68 78% 76 29.85 0.0
03 02:55 S 7 9.00 Partly Cloudy FEW110 SCT260 SCT280 72.9 70.2 91% 29.86 0.0
03 02:35 S 6 9.00 Mostly Cloudy SCT110 BKN290 72.7 70.2 92% 29.86 0.0
03 02:15 S 6 10.00 Fair CLR 72.7 70.2 92% 29.85 0.0
03 01:55 S 7 10.00 Fair CLR 72.9 70.2 91% 29.86 0.0
03 01:35 S 6 10.00 Fair CLR 72.9 70.2 91% 29.85 0.0
03 01:15 S 5 9.00 Fair CLR 70.9 69.3 95% 29.86 0.0
03 00:55 SE 5 10.00 A Few Clouds FEW150 72.5 69.6 82.6 72.5 91% 29.86 0.0
03 00:35 SE 3 9.00 Mostly Cloudy SCT150 BKN180 72.7 69.8 91% 29.86 0.0
03 00:15 SE 5 10.00 Overcast SCT150 OVC170 73.2 70 90% 29.86 0.0
02 23:55 Calm 10.00 Mostly Cloudy SCT150 BKN170 73.4 69.8 89% 29.87 0.0
02 23:35 E 3 10.00 Partly Cloudy SCT150 73.6 70 89% 29.87 0.0
02 23:15 SE 3 10.00 Fair CLR 73.6 70 89% 29.87 0.0
02 22:55 Calm 9.00 Fair CLR 74.1 70.3 88% 29.87 0.0
02 22:35 SE 3 10.00 Fair CLR 74.3 70.5 88% 29.87 0.0
02 22:15 SE 3 9.00 Fair CLR 74.7 70.7 88% 29.87 0.0
02 21:55 SE 5 10.00 Fair CLR 75.9 70.5 83% 77 29.87 0.0
02 21:35 SE 6 10.00 Fair CLR 76.8 70.3 80% 78 29.87 0.0
02 21:15 SE 8 10.00 Fair CLR 77.2 70.5 80% 79 29.87 0.0
02 20:55 SE 6 10.00 Fair CLR 77.2 71.6 83% 79 29.87 0.0
02 20:35 SE 7 10.00 Fair CLR 77.5 72 83% 79 29.86 0.0
02 20:15 SE 7 9.00 Fair CLR 78.8 71.8 79% 82 29.86 0.0
02 19:55 SE 6 9.00 Fair CLR 79.2 71.8 78% 82 29.86 0.0
02 19:35 S 6 9.00 Fair CLR 80.6 71.4 74% 85 29.86 0.0
02 19:15 S 7 9.00 Fair CLR 81.9 71.1 70% 86 29.86 0.0
02 18:55 S 6 9.00 Fair CLR 83.1 70.5 88 83.1 66% 88 29.86 0.0
02 18:35 S 10 10.00 Fair CLR 83.8 70 63% 88 29.86 0.0
02 18:15 S 10 10.00 Fair CLR 84.6 69.1 60% 88 29.86 0.0
02 17:55 S 10 10.00 Fair CLR 85.5 68.2 56% 89 29.86 0.0
02 17:35 S 13 10.00 Fair CLR 85.6 67.5 55% 89 29.87 0.0
02 17:15 S 12 10.00 Fair CLR 86.4 67.3 53% 89 29.87 0.0
02 16:55 S 8 10.00 Fair CLR 86.5 68.7 55% 90 29.87 0.0
02 16:35 S 10 10.00 Fair CLR 87.1 69.1 55% 91 29.87 0.0
02 16:15 S 8 10.00 Fair CLR 87.1 68.2 53% 91 29.87 0.0
02 15:55 S 7 10.00 Fair CLR 87.3 67.8 53% 91 29.88 0.0
02 15:35 S 7 10.00 Fair CLR 87.3 67.5 52% 90 29.88 0.0
02 15:15 SW 5 10.00 Fair CLR 87.4 68.2 53% 91 29.88 0.0
02 14:55 Vrbl 6 10.00 Fair CLR 87.8 66.9 50% 91 29.89 0.0
Date Time (cdt) Wind (mph) Vis. (mi.) Weather Sky Cond. Air Dwpt Max. Min. Relative Humidity Wind Chill (°F) Heat Index (°F) altimeter (in) sea level (mb) 1 hr 3 hr 6 hr
6 hour
Temperature (ºF) Pressure Precipitation (in)